createdAt,value
2018-03-20T00:00:23.928Z,34.77
2018-03-20T00:02:57.001Z,34.76
2018-03-20T00:05:27.978Z,34.79
2018-03-20T00:07:59.154Z,34.81
2018-03-20T00:13:09.636Z,35.05
2018-03-20T00:15:42.122Z,35.08
2018-03-20T00:18:13.287Z,35.13
2018-03-20T00:20:44.417Z,35.08
2018-03-20T00:23:15.510Z,35.11
2018-03-20T00:25:47.098Z,34.94
2018-03-20T00:28:17.988Z,35.01
2018-03-20T00:30:49.716Z,35.00
2018-03-20T00:33:21.705Z,35.09
2018-03-20T00:35:52.923Z,34.97
2018-03-20T00:38:24.125Z,35.07
2018-03-20T00:40:55.296Z,35.10
2018-03-20T00:43:26.379Z,35.31
2018-03-20T00:45:58.439Z,35.37
2018-03-20T00:48:29.592Z,35.24
2018-03-20T00:51:00.778Z,35.33
2018-03-20T00:53:32.693Z,35.42
2018-03-20T00:56:03.970Z,35.30
2018-03-20T00:58:35.536Z,35.43
2018-03-20T01:01:22.500Z,35.42
2018-03-20T01:03:54.146Z,35.45
2018-03-20T01:06:25.793Z,35.66
2018-03-20T01:08:57.155Z,35.76
2018-03-20T01:11:28.279Z,36.13
2018-03-20T01:13:59.560Z,36.42
2018-03-20T01:16:34.231Z,36.43
2018-03-20T01:19:06.121Z,36.39
2018-03-20T01:21:37.659Z,36.55
2018-03-20T01:24:09.532Z,36.29
2018-03-20T01:26:41.173Z,36.35
2018-03-20T01:29:12.431Z,36.31
2018-03-20T01:31:44.507Z,36.59
2018-03-20T01:34:19.742Z,37.33
2018-03-20T01:36:51.340Z,38.14
2018-03-20T01:39:22.929Z,38.33
2018-03-20T01:41:54.757Z,38.76
2018-03-20T01:44:26.410Z,38.88
2018-03-20T01:46:59.085Z,39.00
2018-03-20T01:49:31.158Z,38.99
2018-03-20T01:52:02.678Z,39.06
2018-03-20T01:54:34.820Z,39.12
2018-03-20T01:57:06.286Z,39.33
2018-03-20T01:59:40.960Z,39.52
2018-03-20T02:02:13.085Z,39.38
2018-03-20T02:04:44.448Z,39.39
2018-03-20T02:07:16.169Z,39.62
2018-03-20T02:09:47.979Z,39.59
2018-03-20T02:12:19.585Z,39.41
2018-03-20T02:14:51.631Z,39.54
2018-03-20T02:17:23.648Z,39.60
2018-03-20T02:19:55.230Z,39.80
2018-03-20T02:22:26.403Z,39.90
2018-03-20T02:24:57.642Z,39.93
2018-03-20T02:27:29.232Z,39.76
2018-03-20T02:30:00.438Z,40.11
2018-03-20T02:32:34.573Z,39.73
2018-03-20T02:35:06.476Z,40.33
2018-03-20T02:37:37.886Z,39.94
2018-03-20T02:40:10.668Z,39.98
2018-03-20T02:42:41.831Z,40.30
2018-03-20T02:45:15.656Z,40.22
2018-03-20T02:47:47.556Z,40.63
2018-03-20T02:50:20.233Z,40.58
2018-03-20T02:52:52.955Z,40.79
2018-03-20T02:55:24.245Z,40.44
2018-03-20T02:57:55.408Z,40.67
2018-03-20T03:00:27.434Z,41.19
2018-03-20T03:02:59.850Z,41.74
2018-03-20T03:05:31.164Z,42.00
2018-03-20T03:08:03.017Z,41.94
2018-03-20T03:10:38.395Z,42.68
2018-03-20T03:13:19.093Z,42.95
2018-03-20T03:15:50.540Z,43.33
2018-03-20T03:18:21.734Z,43.22
2018-03-20T03:20:52.586Z,43.38
2018-03-20T03:23:24.647Z,43.20
2018-03-20T03:25:56.178Z,43.04
2018-03-20T03:28:27.657Z,43.30
2018-03-20T03:30:59.366Z,42.70
2018-03-20T03:33:30.771Z,42.95
2018-03-20T03:36:01.677Z,42.81
2018-03-20T03:38:33.124Z,42.51
2018-03-20T03:41:10.527Z,42.37
2018-03-20T03:43:43.132Z,42.93
2018-03-20T03:46:15.076Z,43.09
2018-03-20T03:48:45.731Z,43.32
2018-03-20T03:51:16.709Z,43.42
2018-03-20T03:53:47.857Z,44.40
2018-03-20T03:56:19.241Z,45.69
2018-03-20T03:58:50.421Z,46.07
2018-03-20T04:01:22.169Z,45.98
2018-03-20T04:03:53.283Z,46.62
2018-03-20T04:06:23.956Z,49.02
2018-03-20T04:08:56.093Z,49.65
2018-03-20T04:11:28.238Z,48.61
2018-03-20T04:13:59.058Z,48.99
2018-03-20T04:16:30.727Z,48.46
2018-03-20T04:19:02.418Z,48.47
2018-03-20T04:21:34.062Z,48.12
2018-03-20T04:24:05.212Z,47.50
2018-03-20T04:26:37.218Z,47.67
2018-03-20T04:29:08.099Z,47.40
2018-03-20T04:31:41.160Z,47.59
2018-03-20T04:34:14.553Z,47.53
2018-03-20T04:36:45.463Z,47.79
2018-03-20T04:39:16.297Z,48.49
2018-03-20T04:41:47.470Z,49.31
2018-03-20T04:44:19.390Z,49.88
2018-03-20T04:46:50.287Z,50.99
2018-03-20T04:49:26.069Z,52.84
2018-03-20T04:51:56.926Z,53.59
2018-03-20T04:54:30.550Z,53.13
2018-03-20T04:57:04.969Z,55.04
2018-03-20T04:59:37.841Z,56.08
2018-03-20T05:02:09.162Z,57.09
2018-03-20T05:04:39.975Z,56.69
2018-03-20T05:07:10.602Z,58.05
2018-03-20T05:09:42.080Z,60.05
2018-03-20T05:12:13.257Z,59.44
2018-03-20T05:14:44.536Z,58.96
2018-03-20T05:17:17.520Z,58.91
2018-03-20T05:19:48.804Z,59.07
2018-03-20T05:22:20.099Z,60.43
2018-03-20T05:24:51.329Z,60.95
2018-03-20T05:27:22.662Z,61.87
2018-03-20T05:33:04.374Z,62.56
2018-03-20T05:35:35.798Z,61.79
2018-03-20T05:38:07.276Z,61.41
2018-03-20T05:40:40.197Z,61.05
2018-03-20T05:43:11.620Z,60.88
2018-03-20T05:45:45.238Z,62.13
2018-03-20T05:48:17.191Z,61.62
2018-03-20T05:50:48.607Z,61.78
2018-03-20T05:53:21.487Z,61.77
2018-03-20T05:55:54.960Z,62.00
2018-03-20T05:58:26.066Z,62.37
2018-03-20T06:00:58.514Z,62.66
2018-03-20T06:03:30.039Z,62.69
2018-03-20T06:06:01.263Z,62.84
2018-03-20T06:08:32.625Z,63.70
2018-03-20T06:11:03.859Z,64.78
2018-03-20T06:13:38.048Z,64.48
2018-03-20T06:16:10.608Z,65.43
2018-03-20T06:18:42.433Z,65.95
2018-03-20T06:21:14.489Z,65.70
2018-03-20T06:23:46.616Z,65.41
2018-03-20T06:26:17.827Z,64.98
2018-03-20T06:28:49.463Z,64.12
2018-03-20T06:31:22.252Z,64.66
2018-03-20T06:33:55.702Z,64.80
2018-03-20T06:36:27.923Z,64.57
2018-03-20T06:38:59.509Z,64.84
2018-03-20T06:41:31.703Z,65.94
2018-03-20T06:44:03.173Z,66.95
2018-03-20T06:46:35.769Z,67.32
2018-03-20T06:49:08.168Z,67.82
2018-03-20T06:51:39.271Z,67.31
2018-03-20T06:54:12.281Z,66.68
2018-03-20T06:56:46.176Z,67.16
2018-03-20T06:59:19.333Z,66.67
2018-03-20T07:01:51.776Z,66.30
2018-03-20T07:04:23.595Z,66.00
2018-03-20T07:06:55.700Z,65.31
2018-03-20T07:09:28.352Z,64.56
2018-03-20T07:11:59.858Z,64.72
2018-03-20T07:14:31.379Z,63.98
2018-03-20T07:17:03.851Z,65.27
2018-03-20T07:19:36.905Z,66.01
2018-03-20T07:22:08.728Z,65.90
2018-03-20T07:24:47.209Z,66.21
2018-03-20T07:27:18.772Z,67.48
2018-03-20T07:29:50.649Z,67.64
2018-03-20T07:32:23.716Z,67.10
2018-03-20T07:34:57.125Z,67.65
2018-03-20T07:37:28.616Z,67.14
2018-03-20T07:39:59.968Z,67.41
2018-03-20T07:42:32.202Z,66.74
2018-03-20T07:45:08.361Z,65.82
2018-03-20T07:47:42.058Z,66.45
2018-03-20T07:50:15.316Z,66.74
2018-03-20T07:52:50.394Z,66.72
2018-03-20T07:55:21.583Z,66.02
2018-03-20T07:57:53.516Z,65.70
2018-03-20T08:00:29.273Z,65.68
2018-03-20T08:03:01.228Z,65.53
2018-03-20T08:05:32.417Z,65.69
2018-03-20T08:08:03.884Z,65.80
2018-03-20T08:10:35.188Z,65.93
2018-03-20T08:13:06.216Z,65.76
2018-03-20T08:15:39.532Z,65.52
2018-03-20T08:18:10.930Z,65.56
2018-03-20T08:20:43.437Z,64.21
2018-03-20T08:23:17.272Z,63.29
2018-03-20T08:25:48.963Z,63.46
2018-03-20T08:28:21.703Z,63.36
2018-03-20T08:30:54.472Z,62.94
2018-03-20T08:33:31.381Z,63.08
2018-03-20T08:36:02.561Z,63.28
2018-03-20T08:38:35.133Z,63.72
2018-03-20T08:41:07.682Z,64.14
2018-03-20T08:43:39.565Z,63.37
2018-03-20T08:46:11.150Z,63.58
2018-03-20T08:48:42.384Z,63.80
2018-03-20T08:54:14.714Z,62.45
2018-03-20T08:56:46.443Z,61.88
2018-03-20T08:59:18.174Z,61.63
2018-03-20T09:01:50.017Z,61.43
2018-03-20T09:04:22.452Z,60.20
2018-03-20T09:06:54.713Z,58.26
2018-03-20T09:09:26.080Z,58.04
2018-03-20T09:12:00.197Z,57.54
2018-03-20T09:14:32.056Z,55.41
2018-03-20T09:17:05.752Z,55.03
2018-03-20T09:19:39.980Z,55.39
2018-03-20T09:22:10.967Z,54.53
2018-03-20T09:24:42.977Z,54.24
2018-03-20T09:27:14.305Z,51.79
2018-03-20T09:29:45.439Z,50.58
2018-03-20T09:32:17.033Z,50.54
2018-03-20T09:34:56.158Z,49.38
2018-03-20T09:37:27.459Z,48.09
2018-03-20T09:40:04.409Z,46.78
2018-03-20T09:42:35.519Z,44.80
2018-03-20T09:45:08.932Z,44.41
2018-03-20T09:47:40.499Z,44.43
2018-03-20T09:50:14.361Z,43.75
2018-03-20T09:52:47.113Z,42.32
2018-03-20T09:55:20.757Z,41.58
2018-03-20T09:57:52.106Z,42.12
2018-03-20T10:00:24.748Z,41.59
2018-03-20T10:02:56.032Z,40.89
2018-03-20T10:05:28.326Z,39.67
2018-03-20T10:08:02.400Z,38.71
2018-03-20T10:10:35.136Z,38.46
2018-03-20T10:13:14.902Z,37.71
2018-03-20T10:15:47.858Z,37.70
2018-03-20T10:18:20.676Z,37.60
2018-03-20T10:20:53.765Z,36.85
2018-03-20T10:26:01.819Z,37.53
2018-03-20T10:28:36.653Z,37.21
2018-03-20T10:31:12.256Z,36.43
2018-03-20T10:33:46.193Z,37.20
2018-03-20T10:36:18.569Z,34.99
2018-03-20T10:38:50.280Z,34.38
2018-03-20T10:41:24.087Z,34.05
2018-03-20T10:43:56.736Z,33.42
2018-03-20T10:46:29.288Z,32.89
2018-03-20T10:49:03.289Z,31.63
2018-03-20T10:51:36.572Z,30.10
2018-03-20T10:54:08.755Z,28.97
2018-03-20T10:56:42.100Z,28.78
2018-03-20T10:59:13.131Z,29.70
2018-03-20T11:01:47.285Z,29.91
2018-03-20T11:04:19.067Z,28.00
2018-03-20T11:06:50.806Z,27.53
2018-03-20T11:09:23.508Z,27.49
2018-03-20T11:11:55.797Z,27.69
2018-03-20T11:14:30.899Z,27.61
2018-03-20T11:17:05.473Z,27.90
2018-03-20T11:19:47.892Z,26.80
2018-03-20T11:22:21.148Z,25.73
2018-03-20T11:24:52.933Z,25.56
2018-03-20T11:27:49.013Z,24.55
2018-03-20T11:30:26.025Z,25.70
2018-03-20T11:33:02.687Z,25.23
2018-03-20T11:35:53.526Z,25.05
2018-03-20T11:38:30.665Z,24.83
2018-03-20T11:41:03.835Z,24.97
2018-03-20T11:43:35.733Z,23.37
2018-03-20T11:46:08.150Z,23.79
2018-03-20T11:48:58.640Z,23.66
2018-03-20T11:51:30.979Z,23.41
2018-03-20T11:54:02.419Z,23.36
2018-03-20T11:59:03.452Z,23.99
2018-03-20T12:01:36.371Z,24.88
2018-03-20T12:04:08.646Z,24.12
2018-03-20T12:06:46.020Z,24.02
2018-03-20T12:09:26.342Z,23.83
2018-03-20T12:11:57.805Z,24.34
2018-03-20T12:14:32.617Z,22.65
2018-03-20T12:17:03.863Z,22.83
2018-03-20T12:19:37.717Z,23.54
2018-03-20T12:22:10.987Z,22.89
2018-03-20T12:24:43.040Z,22.67
2018-03-20T12:27:16.336Z,21.58
2018-03-20T12:29:49.374Z,22.13
2018-03-20T12:32:22.579Z,21.88
2018-03-20T12:34:54.948Z,20.23
2018-03-20T12:37:30.833Z,21.23
2018-03-20T12:40:03.091Z,21.05
2018-03-20T12:42:35.446Z,20.77
2018-03-20T12:45:13.566Z,21.14
2018-03-20T12:47:52.619Z,20.75
2018-03-20T12:50:24.805Z,20.29
2018-03-20T12:52:56.818Z,20.72
2018-03-20T12:55:31.228Z,19.75
2018-03-20T12:58:03.217Z,20.14
2018-03-20T13:00:34.709Z,20.08
2018-03-20T13:03:06.481Z,19.70
2018-03-20T13:05:38.741Z,19.73
2018-03-20T13:08:13.200Z,20.35
2018-03-20T13:11:00.115Z,19.73
2018-03-20T13:13:31.121Z,20.15
2018-03-20T13:16:03.310Z,20.00
2018-03-20T13:18:35.612Z,19.80
2018-03-20T13:21:09.497Z,19.68
2018-03-20T13:23:41.742Z,18.83
2018-03-20T13:26:14.850Z,19.51
2018-03-20T13:28:49.678Z,19.94
2018-03-20T13:31:22.815Z,19.13
2018-03-20T13:34:03.440Z,18.38
2018-03-20T13:36:36.864Z,19.23
2018-03-20T13:39:09.423Z,19.84
2018-03-20T13:41:44.032Z,20.01
2018-03-20T13:44:17.091Z,19.86
2018-03-20T13:46:50.818Z,20.07
2018-03-20T13:49:24.762Z,19.44
2018-03-20T13:52:03.503Z,19.22
2018-03-20T13:54:40.881Z,19.36
2018-03-20T13:57:17.192Z,19.95
2018-03-20T13:59:49.777Z,20.86
2018-03-20T14:02:25.645Z,21.34
2018-03-20T14:04:57.935Z,21.53
2018-03-20T14:07:41.240Z,20.58
2018-03-20T14:10:12.560Z,20.24
2018-03-20T14:12:45.771Z,20.33
2018-03-20T14:15:19.353Z,19.88
2018-03-20T14:17:52.934Z,21.26
2018-03-20T14:20:26.485Z,22.12
2018-03-20T14:23:05.863Z,21.06
2018-03-20T14:25:41.285Z,21.43
2018-03-20T14:28:13.825Z,21.56
2018-03-20T14:30:55.113Z,22.31
2018-03-20T14:33:30.626Z,22.84
2018-03-20T14:36:04.310Z,22.33
2018-03-20T14:38:36.570Z,21.18
2018-03-20T14:41:09.834Z,20.93
2018-03-20T14:43:51.101Z,19.08
2018-03-20T14:46:23.992Z,19.59
2018-03-20T14:48:56.571Z,19.48
2018-03-20T14:51:29.454Z,19.51
2018-03-20T14:54:01.374Z,18.87
2018-03-20T14:56:33.292Z,19.38
2018-03-20T14:59:05.499Z,19.80
2018-03-20T15:01:38.316Z,20.21
2018-03-20T15:04:11.363Z,20.85
2018-03-20T15:06:43.253Z,21.73
2018-03-20T15:09:15.385Z,22.60
2018-03-20T15:11:48.322Z,22.81
2018-03-20T15:14:22.946Z,22.14
2018-03-20T15:16:55.342Z,22.83
2018-03-20T15:19:32.277Z,22.87
2018-03-20T15:22:06.726Z,22.20
2018-03-20T15:24:41.984Z,22.55
2018-03-20T15:27:15.123Z,19.03
2018-03-20T15:29:46.760Z,20.11
2018-03-20T15:32:18.068Z,21.01
2018-03-20T15:34:49.877Z,20.70
2018-03-20T15:37:22.553Z,20.96
2018-03-20T15:39:57.737Z,22.23
2018-03-20T15:42:30.702Z,22.92
2018-03-20T15:45:13.255Z,23.03
2018-03-20T15:47:44.687Z,23.29
2018-03-20T15:50:17.316Z,22.68
2018-03-20T15:52:49.222Z,23.80
2018-03-20T15:55:21.148Z,23.35
2018-03-20T15:57:54.329Z,22.90
2018-03-20T16:00:31.735Z,23.16
2018-03-20T16:03:04.675Z,23.39
2018-03-20T16:05:37.341Z,22.63
2018-03-20T16:08:11.162Z,22.16
2018-03-20T16:10:43.396Z,22.12
2018-03-20T16:13:17.135Z,21.61
2018-03-20T16:15:51.588Z,22.18
2018-03-20T16:18:24.517Z,23.21
2018-03-20T16:20:55.939Z,21.96
2018-03-20T16:23:35.116Z,21.95
2018-03-20T16:26:09.736Z,21.72
2018-03-20T16:28:42.012Z,23.03
2018-03-20T16:31:16.195Z,22.90
2018-03-20T16:33:47.939Z,22.93
2018-03-20T16:36:23.618Z,22.38
2018-03-20T16:38:59.196Z,22.38
2018-03-20T16:41:36.277Z,22.55
2018-03-20T16:44:10.409Z,23.08
2018-03-20T16:46:44.558Z,22.92
2018-03-20T16:49:19.583Z,22.55
2018-03-20T16:51:54.004Z,22.96
2018-03-20T16:54:32.431Z,23.00
2018-03-20T16:57:06.434Z,23.36
2018-03-20T16:59:41.063Z,23.97
2018-03-20T17:02:20.807Z,23.96
2018-03-20T17:04:55.910Z,24.30
2018-03-20T17:07:29.620Z,24.97
2018-03-20T17:10:09.932Z,24.38
2018-03-20T17:12:44.250Z,24.57
2018-03-20T17:15:24.609Z,24.84
2018-03-20T17:17:57.289Z,24.55
2018-03-20T17:20:32.594Z,24.76
2018-03-20T17:23:12.378Z,25.14
2018-03-20T17:26:01.772Z,27.56
2018-03-20T17:28:39.515Z,27.62
2018-03-20T17:31:11.942Z,27.65
2018-03-20T17:33:46.700Z,27.88
2018-03-20T17:36:22.839Z,27.83
2018-03-20T17:39:06.926Z,28.02
2018-03-20T17:41:42.571Z,28.34
2018-03-20T17:44:20.005Z,28.60
2018-03-20T17:49:44.398Z,28.69
2018-03-20T17:52:24.282Z,28.52
2018-03-20T17:55:27.870Z,29.02
2018-03-20T18:02:12.573Z,29.82
2018-03-20T18:04:51.095Z,29.87
2018-03-20T18:07:26.204Z,29.81
2018-03-20T18:09:58.912Z,29.74
2018-03-20T18:12:33.256Z,29.53
2018-03-20T18:15:08.926Z,29.92
2018-03-20T18:17:41.347Z,30.31
2018-03-20T18:20:18.852Z,29.81
2018-03-20T18:22:53.694Z,29.85
2018-03-20T18:25:29.023Z,30.36
2018-03-20T18:28:05.145Z,30.46
2018-03-20T18:30:40.001Z,30.70
2018-03-20T18:33:17.012Z,31.02
2018-03-20T18:35:53.495Z,30.90
2018-03-20T18:38:28.855Z,30.54
2018-03-20T18:41:07.260Z,30.66
2018-03-20T18:43:47.817Z,30.81
2018-03-20T18:46:30.835Z,31.11
2018-03-20T18:49:10.336Z,31.21
2018-03-20T18:54:40.823Z,31.54
2018-03-20T18:57:17.107Z,31.35
2018-03-20T18:59:53.958Z,31.37
2018-03-20T19:02:33.596Z,31.32
2018-03-20T19:05:20.057Z,31.54
2018-03-20T19:07:57.262Z,31.56
2018-03-20T19:10:32.943Z,32.28
2018-03-20T19:13:06.648Z,32.24
2018-03-20T19:15:41.093Z,32.39
2018-03-20T19:18:20.105Z,32.39
2018-03-20T19:21:01.215Z,32.72
2018-03-20T19:23:35.261Z,32.88
2018-03-20T19:26:12.658Z,33.46
2018-03-20T19:31:32.841Z,33.68
2018-03-20T19:34:09.285Z,34.07
2018-03-20T19:36:46.211Z,34.07
2018-03-20T19:39:22.343Z,34.32
2018-03-20T19:41:55.835Z,34.89
2018-03-20T19:44:32.683Z,34.67
2018-03-20T19:47:11.011Z,35.36
2018-03-20T19:49:46.879Z,35.76
2018-03-20T19:52:22.494Z,35.44
2018-03-20T19:55:00.352Z,35.94
2018-03-20T19:57:35.609Z,35.73
2018-03-20T20:00:18.167Z,35.93
2018-03-20T20:02:54.950Z,35.87
2018-03-20T20:05:35.738Z,36.31
2018-03-20T20:08:10.539Z,36.11
2018-03-20T20:10:45.298Z,36.60
2018-03-20T20:13:20.883Z,36.43
2018-03-20T20:15:54.642Z,36.28
2018-03-20T20:18:27.818Z,36.73
2018-03-20T20:21:01.921Z,36.97
2018-03-20T20:23:36.910Z,36.82
2018-03-20T20:26:11.661Z,36.77
2018-03-20T20:28:46.910Z,37.26
2018-03-20T20:31:25.027Z,37.11
2018-03-20T20:34:00.491Z,37.01
2018-03-20T20:36:35.477Z,37.24
2018-03-20T20:39:10.384Z,37.15
2018-03-20T20:41:44.749Z,37.33
2018-03-20T20:44:18.481Z,37.21
2018-03-20T20:46:56.220Z,37.45
2018-03-20T20:49:32.034Z,37.42
2018-03-20T20:52:08.770Z,37.61
2018-03-20T20:54:44.590Z,37.58
2018-03-20T20:57:18.010Z,37.74
2018-03-20T20:59:52.759Z,37.99
2018-03-20T21:02:28.362Z,37.87
2018-03-20T21:05:00.481Z,38.04
2018-03-20T21:07:32.350Z,38.23
2018-03-20T21:10:05.636Z,38.45
2018-03-20T21:12:37.972Z,38.52
2018-03-20T21:26:07.422Z,38.88
2018-03-20T21:28:41.260Z,38.95
2018-03-20T21:31:15.984Z,39.01
2018-03-20T21:33:47.963Z,39.08
2018-03-20T21:36:22.535Z,39.22
2018-03-20T21:38:54.919Z,39.46
2018-03-20T21:41:29.870Z,39.49
2018-03-20T21:44:15.674Z,39.73
2018-03-20T21:46:48.618Z,39.92
2018-03-20T21:49:20.450Z,39.68
2018-03-20T21:51:51.856Z,39.54
2018-03-20T21:54:26.660Z,39.44
2018-03-20T21:56:59.825Z,39.82
2018-03-20T21:59:30.863Z,40.17
2018-03-20T22:02:03.571Z,40.82
2018-03-20T22:04:34.677Z,41.51
2018-03-20T22:07:09.127Z,41.25
2018-03-20T22:09:40.131Z,41.67
2018-03-20T22:12:11.465Z,42.06
2018-03-20T22:14:42.712Z,42.33
2018-03-20T22:17:14.564Z,42.87
2018-03-20T22:19:46.005Z,43.35
2018-03-20T22:22:17.496Z,43.53
2018-03-20T22:24:48.383Z,43.75
2018-03-20T22:27:20.667Z,43.89
2018-03-20T22:29:52.716Z,43.86
2018-03-20T22:35:02.980Z,44.29
2018-03-20T22:37:34.398Z,44.35
2018-03-20T22:40:06.679Z,44.48
2018-03-20T22:42:38.572Z,44.47
2018-03-20T22:45:10.259Z,44.60
2018-03-20T22:47:45.107Z,44.54
2018-03-20T22:50:17.494Z,44.95
2018-03-20T22:52:49.278Z,44.89
2018-03-20T22:55:22.969Z,44.89
2018-03-20T22:58:01.669Z,44.71
2018-03-20T23:00:34.783Z,45.02
2018-03-20T23:03:07.362Z,45.37
2018-03-20T23:05:39.769Z,45.40
2018-03-20T23:08:11.540Z,45.43
2018-03-20T23:10:43.114Z,45.54
2018-03-20T23:13:14.731Z,45.58
2018-03-20T23:15:47.521Z,45.72
2018-03-20T23:18:24.477Z,45.80
2018-03-20T23:20:56.570Z,45.87
2018-03-20T23:23:40.449Z,46.04
2018-03-20T23:26:12.292Z,46.03
2018-03-20T23:28:50.489Z,46.04
2018-03-20T23:31:22.672Z,46.04
2018-03-20T23:33:54.004Z,46.26
2018-03-20T23:36:26.348Z,46.27
2018-03-20T23:38:57.472Z,46.51
2018-03-20T23:41:31.571Z,46.39
2018-03-20T23:44:02.945Z,46.41
2018-03-20T23:46:34.543Z,46.75
2018-03-20T23:49:06.275Z,46.60
2018-03-20T23:51:38.642Z,46.77
2018-03-20T23:54:10.834Z,46.74
2018-03-20T23:56:43.211Z,46.72
2018-03-20T23:59:14.701Z,47.15
